sensor_id;sensor_type;location;lat;lon;timestamp;P1;durP1;ratioP1;P2;durP2;ratioP2
47335;SDS011;33068;51.990;5.926;2023-05-27T00:00:15;10.45;;;2.78;;
47335;SDS011;33068;51.990;5.926;2023-05-27T00:02:43;16.65;;;3.33;;
47335;SDS011;33068;51.990;5.926;2023-05-27T00:05:10;17.60;;;4.20;;
47335;SDS011;33068;51.990;5.926;2023-05-27T00:07:37;10.93;;;3.28;;
47335;SDS011;33068;51.990;5.926;2023-05-27T00:10:04;14.48;;;3.50;;
47335;SDS011;33068;51.990;5.926;2023-05-27T00:12:32;18.10;;;3.80;;
47335;SDS011;33068;51.990;5.926;2023-05-27T00:14:59;12.85;;;3.55;;
47335;SDS011;33068;51.990;5.926;2023-05-27T00:17:27;20.27;;;4.00;;
47335;SDS011;33068;51.990;5.926;2023-05-27T00:19:54;16.45;;;3.47;;
47335;SDS011;33068;51.990;5.926;2023-05-27T00:22:22;15.88;;;3.60;;
47335;SDS011;33068;51.990;5.926;2023-05-27T00:24:49;18.17;;;3.70;;
47335;SDS011;33068;51.990;5.926;2023-05-27T00:27:16;17.80;;;3.90;;
47335;SDS011;33068;51.990;5.926;2023-05-27T00:29:43;20.23;;;3.80;;
47335;SDS011;33068;51.990;5.926;2023-05-27T00:32:10;24.92;;;4.10;;
47335;SDS011;33068;51.990;5.926;2023-05-27T00:34:40;14.63;;;3.70;;
47335;SDS011;33068;51.990;5.926;2023-05-27T00:37:07;20.52;;;3.38;;
47335;SDS011;33068;51.990;5.926;2023-05-27T00:39:34;16.10;;;4.03;;
47335;SDS011;33068;51.990;5.926;2023-05-27T00:42:01;20.45;;;3.55;;
47335;SDS011;33068;51.990;5.926;2023-05-27T00:44:28;15.10;;;3.55;;
47335;SDS011;33068;51.990;5.926;2023-05-27T00:46:55;15.25;;;3.67;;
47335;SDS011;33068;51.990;5.926;2023-05-27T00:49:22;17.50;;;3.33;;
47335;SDS011;33068;51.990;5.926;2023-05-27T00:51:52;15.45;;;3.78;;
47335;SDS011;33068;51.990;5.926;2023-05-27T00:54:19;16.02;;;5.15;;
47335;SDS011;33068;51.990;5.926;2023-05-27T00:56:46;24.05;;;4.25;;
47335;SDS011;33068;51.990;5.926;2023-05-27T00:59:13;16.00;;;3.55;;
47335;SDS011;33068;51.990;5.926;2023-05-27T01:01:41;30.65;;;4.75;;
47335;SDS011;33068;51.990;5.926;2023-05-27T01:04:09;23.77;;;3.80;;
47335;SDS011;33068;51.990;5.926;2023-05-27T01:06:41;23.02;;;4.07;;
47335;SDS011;33068;51.990;5.926;2023-05-27T01:11:48;20.30;;;3.25;;
47335;SDS011;33068;51.990;5.926;2023-05-27T01:14:17;18.42;;;3.88;;
47335;SDS011;33068;51.990;5.926;2023-05-27T01:16:46;20.08;;;4.43;;
47335;SDS011;33068;51.990;5.926;2023-05-27T01:19:22;21.05;;;3.95;;
47335;SDS011;33068;51.990;5.926;2023-05-27T01:21:56;26.13;;;3.83;;
47335;SDS011;33068;51.990;5.926;2023-05-27T01:24:28;16.60;;;4.65;;
47335;SDS011;33068;51.990;5.926;2023-05-27T01:26:55;28.02;;;4.47;;
47335;SDS011;33068;51.990;5.926;2023-05-27T01:29:22;17.27;;;3.88;;
47335;SDS011;33068;51.990;5.926;2023-05-27T01:31:51;17.23;;;4.35;;
47335;SDS011;33068;51.990;5.926;2023-05-27T01:34:24;17.58;;;4.47;;
47335;SDS011;33068;51.990;5.926;2023-05-27T01:36:58;21.05;;;3.80;;
47335;SDS011;33068;51.990;5.926;2023-05-27T01:39:30;20.50;;;4.20;;
47335;SDS011;33068;51.990;5.926;2023-05-27T01:41:59;26.50;;;4.55;;
47335;SDS011;33068;51.990;5.926;2023-05-27T01:44:28;21.23;;;4.45;;
47335;SDS011;33068;51.990;5.926;2023-05-27T01:46:58;19.15;;;4.05;;
47335;SDS011;33068;51.990;5.926;2023-05-27T01:49:28;22.92;;;3.97;;
47335;SDS011;33068;51.990;5.926;2023-05-27T01:51:55;22.48;;;4.13;;
47335;SDS011;33068;51.990;5.926;2023-05-27T01:54:23;22.20;;;5.57;;
47335;SDS011;33068;51.990;5.926;2023-05-27T01:56:52;15.60;;;4.32;;
47335;SDS011;33068;51.990;5.926;2023-05-27T01:59:19;31.52;;;4.78;;
47335;SDS011;33068;51.990;5.926;2023-05-27T02:01:46;17.08;;;4.28;;
47335;SDS011;33068;51.990;5.926;2023-05-27T02:04:13;20.95;;;4.63;;
47335;SDS011;33068;51.990;5.926;2023-05-27T02:06:40;24.77;;;4.68;;
47335;SDS011;33068;51.990;5.926;2023-05-27T02:09:08;16.45;;;4.60;;
47335;SDS011;33068;51.990;5.926;2023-05-27T02:11:36;18.95;;;4.05;;
47335;SDS011;33068;51.990;5.926;2023-05-27T02:14:05;17.08;;;3.95;;
47335;SDS011;33068;51.990;5.926;2023-05-27T02:16:33;20.85;;;3.92;;
47335;SDS011;33068;51.990;5.926;2023-05-27T02:19:02;28.38;;;5.40;;
47335;SDS011;33068;51.990;5.926;2023-05-27T02:21:30;15.88;;;4.63;;
47335;SDS011;33068;51.990;5.926;2023-05-27T02:23:57;14.27;;;4.25;;
47335;SDS011;33068;51.990;5.926;2023-05-27T02:26:24;15.07;;;4.32;;
47335;SDS011;33068;51.990;5.926;2023-05-27T02:28:51;15.63;;;4.28;;
47335;SDS011;33068;51.990;5.926;2023-05-27T02:31:21;13.80;;;3.90;;
47335;SDS011;33068;51.990;5.926;2023-05-27T02:33:48;22.23;;;4.88;;
47335;SDS011;33068;51.990;5.926;2023-05-27T02:36:15;19.17;;;4.72;;
47335;SDS011;33068;51.990;5.926;2023-05-27T02:38:42;16.00;;;4.90;;
47335;SDS011;33068;51.990;5.926;2023-05-27T02:41:10;15.75;;;3.90;;
47335;SDS011;33068;51.990;5.926;2023-05-27T02:43:37;16.05;;;4.43;;
47335;SDS011;33068;51.990;5.926;2023-05-27T02:46:04;12.45;;;3.80;;
47335;SDS011;33068;51.990;5.926;2023-05-27T02:48:32;24.00;;;5.13;;
47335;SDS011;33068;51.990;5.926;2023-05-27T02:50:59;13.20;;;4.47;;
47335;SDS011;33068;51.990;5.926;2023-05-27T02:53:27;19.05;;;5.10;;
47335;SDS011;33068;51.990;5.926;2023-05-27T02:55:54;21.67;;;4.88;;
47335;SDS011;33068;51.990;5.926;2023-05-27T02:58:21;16.80;;;5.55;;
47335;SDS011;33068;51.990;5.926;2023-05-27T03:00:48;30.55;;;5.32;;
47335;SDS011;33068;51.990;5.926;2023-05-27T03:03:15;26.83;;;5.05;;
47335;SDS011;33068;51.990;5.926;2023-05-27T03:05:43;28.63;;;5.68;;
47335;SDS011;33068;51.990;5.926;2023-05-27T03:08:11;22.13;;;5.45;;
47335;SDS011;33068;51.990;5.926;2023-05-27T03:10:38;23.05;;;5.95;;
47335;SDS011;33068;51.990;5.926;2023-05-27T03:13:05;23.08;;;6.03;;
47335;SDS011;33068;51.990;5.926;2023-05-27T03:15:32;23.60;;;5.30;;
47335;SDS011;33068;51.990;5.926;2023-05-27T03:18:00;23.52;;;5.57;;
47335;SDS011;33068;51.990;5.926;2023-05-27T03:20:30;26.17;;;5.50;;
47335;SDS011;33068;51.990;5.926;2023-05-27T03:22:58;19.38;;;4.85;;
47335;SDS011;33068;51.990;5.926;2023-05-27T03:25:25;23.15;;;6.03;;
47335;SDS011;33068;51.990;5.926;2023-05-27T03:27:55;16.10;;;4.72;;
47335;SDS011;33068;51.990;5.926;2023-05-27T03:30:22;19.55;;;5.82;;
47335;SDS011;33068;51.990;5.926;2023-05-27T03:32:52;23.60;;;5.20;;
47335;SDS011;33068;51.990;5.926;2023-05-27T03:35:26;23.42;;;5.07;;
47335;SDS011;33068;51.990;5.926;2023-05-27T03:37:53;18.67;;;5.68;;
47335;SDS011;33068;51.990;5.926;2023-05-27T03:40:22;24.33;;;5.65;;
47335;SDS011;33068;51.990;5.926;2023-05-27T03:42:50;24.10;;;5.78;;
47335;SDS011;33068;51.990;5.926;2023-05-27T03:45:21;30.08;;;6.25;;
47335;SDS011;33068;51.990;5.926;2023-05-27T03:47:48;19.65;;;5.13;;
47335;SDS011;33068;51.990;5.926;2023-05-27T03:50:16;38.22;;;5.53;;
47335;SDS011;33068;51.990;5.926;2023-05-27T03:52:43;15.02;;;4.47;;
47335;SDS011;33068;51.990;5.926;2023-05-27T03:55:10;20.73;;;5.05;;
47335;SDS011;33068;51.990;5.926;2023-05-27T03:57:40;25.25;;;5.90;;
47335;SDS011;33068;51.990;5.926;2023-05-27T04:00:08;20.80;;;4.72;;
47335;SDS011;33068;51.990;5.926;2023-05-27T04:02:47;26.27;;;5.00;;
47335;SDS011;33068;51.990;5.926;2023-05-27T04:05:15;22.17;;;4.97;;
47335;SDS011;33068;51.990;5.926;2023-05-27T04:07:43;28.00;;;5.60;;
47335;SDS011;33068;51.990;5.926;2023-05-27T04:10:10;21.42;;;5.78;;
47335;SDS011;33068;51.990;5.926;2023-05-27T04:12:38;21.45;;;5.65;;
47335;SDS011;33068;51.990;5.926;2023-05-27T04:15:07;16.80;;;4.57;;
47335;SDS011;33068;51.990;5.926;2023-05-27T04:17:35;20.48;;;4.53;;
47335;SDS011;33068;51.990;5.926;2023-05-27T04:20:03;25.33;;;4.93;;
47335;SDS011;33068;51.990;5.926;2023-05-27T04:22:39;21.83;;;5.10;;
47335;SDS011;33068;51.990;5.926;2023-05-27T04:25:08;18.60;;;5.00;;
47335;SDS011;33068;51.990;5.926;2023-05-27T04:27:51;22.17;;;5.30;;
47335;SDS011;33068;51.990;5.926;2023-05-27T04:30:20;14.00;;;4.45;;
47335;SDS011;33068;51.990;5.926;2023-05-27T04:32:48;21.33;;;5.35;;
47335;SDS011;33068;51.990;5.926;2023-05-27T04:35:19;20.60;;;5.03;;
47335;SDS011;33068;51.990;5.926;2023-05-27T04:37:47;18.50;;;4.85;;
47335;SDS011;33068;51.990;5.926;2023-05-27T04:40:16;19.20;;;5.20;;
47335;SDS011;33068;51.990;5.926;2023-05-27T04:43:04;21.00;;;4.68;;
47335;SDS011;33068;51.990;5.926;2023-05-27T04:45:32;15.73;;;4.03;;
47335;SDS011;33068;51.990;5.926;2023-05-27T04:48:00;21.20;;;4.85;;
47335;SDS011;33068;51.990;5.926;2023-05-27T04:50:27;22.70;;;5.32;;
47335;SDS011;33068;51.990;5.926;2023-05-27T04:52:55;23.27;;;4.57;;
47335;SDS011;33068;51.990;5.926;2023-05-27T04:55:22;22.80;;;5.30;;
47335;SDS011;33068;51.990;5.926;2023-05-27T04:57:50;18.50;;;4.50;;
47335;SDS011;33068;51.990;5.926;2023-05-27T05:00:17;17.95;;;4.43;;
47335;SDS011;33068;51.990;5.926;2023-05-27T05:02:50;18.02;;;5.05;;
47335;SDS011;33068;51.990;5.926;2023-05-27T05:05:26;32.03;;;5.72;;
47335;SDS011;33068;51.990;5.926;2023-05-27T05:07:54;16.90;;;4.72;;
47335;SDS011;33068;51.990;5.926;2023-05-27T05:10:22;23.08;;;4.75;;
47335;SDS011;33068;51.990;5.926;2023-05-27T05:12:51;24.85;;;5.25;;
47335;SDS011;33068;51.990;5.926;2023-05-27T05:15:20;24.05;;;4.88;;
47335;SDS011;33068;51.990;5.926;2023-05-27T05:17:50;22.58;;;4.60;;
47335;SDS011;33068;51.990;5.926;2023-05-27T05:20:17;17.50;;;5.32;;
47335;SDS011;33068;51.990;5.926;2023-05-27T05:22:45;14.60;;;4.22;;
47335;SDS011;33068;51.990;5.926;2023-05-27T05:25:13;15.38;;;4.30;;
47335;SDS011;33068;51.990;5.926;2023-05-27T05:27:46;18.67;;;4.78;;
47335;SDS011;33068;51.990;5.926;2023-05-27T05:30:14;26.25;;;4.78;;
47335;SDS011;33068;51.990;5.926;2023-05-27T05:32:41;19.75;;;4.45;;
47335;SDS011;33068;51.990;5.926;2023-05-27T05:35:09;15.85;;;4.72;;
47335;SDS011;33068;51.990;5.926;2023-05-27T05:37:41;22.10;;;4.38;;
47335;SDS011;33068;51.990;5.926;2023-05-27T05:40:10;25.50;;;4.75;;
47335;SDS011;33068;51.990;5.926;2023-05-27T05:42:46;22.10;;;4.88;;
47335;SDS011;33068;51.990;5.926;2023-05-27T05:45:13;19.58;;;4.47;;
47335;SDS011;33068;51.990;5.926;2023-05-27T05:47:45;22.55;;;4.68;;
47335;SDS011;33068;51.990;5.926;2023-05-27T05:50:17;24.52;;;4.45;;
47335;SDS011;33068;51.990;5.926;2023-05-27T05:52:45;19.30;;;4.78;;
47335;SDS011;33068;51.990;5.926;2023-05-27T05:55:12;18.83;;;4.32;;
47335;SDS011;33068;51.990;5.926;2023-05-27T05:57:39;17.58;;;4.28;;
47335;SDS011;33068;51.990;5.926;2023-05-27T06:00:07;17.00;;;3.92;;
47335;SDS011;33068;51.990;5.926;2023-05-27T06:02:43;23.38;;;4.35;;
47335;SDS011;33068;51.990;5.926;2023-05-27T06:05:19;28.08;;;4.68;;
47335;SDS011;33068;51.990;5.926;2023-05-27T06:07:47;20.65;;;3.60;;
47335;SDS011;33068;51.990;5.926;2023-05-27T06:10:14;19.63;;;3.15;;
47335;SDS011;33068;51.990;5.926;2023-05-27T06:12:42;23.15;;;4.25;;
47335;SDS011;33068;51.990;5.926;2023-05-27T06:15:09;20.67;;;4.47;;
47335;SDS011;33068;51.990;5.926;2023-05-27T06:17:40;20.15;;;4.28;;
47335;SDS011;33068;51.990;5.926;2023-05-27T06:20:08;19.98;;;4.10;;
47335;SDS011;33068;51.990;5.926;2023-05-27T06:22:37;19.75;;;4.60;;
47335;SDS011;33068;51.990;5.926;2023-05-27T06:25:42;16.20;;;3.88;;
47335;SDS011;33068;51.990;5.926;2023-05-27T06:28:10;23.17;;;4.35;;
47335;SDS011;33068;51.990;5.926;2023-05-27T06:30:37;15.77;;;3.50;;
47335;SDS011;33068;51.990;5.926;2023-05-27T06:33:09;22.10;;;3.80;;
47335;SDS011;33068;51.990;5.926;2023-05-27T06:35:36;19.05;;;4.15;;
47335;SDS011;33068;51.990;5.926;2023-05-27T06:38:05;20.48;;;4.68;;
47335;SDS011;33068;51.990;5.926;2023-05-27T06:40:32;21.85;;;3.92;;
47335;SDS011;33068;51.990;5.926;2023-05-27T06:43:00;18.10;;;4.32;;
47335;SDS011;33068;51.990;5.926;2023-05-27T06:45:45;21.30;;;4.68;;
47335;SDS011;33068;51.990;5.926;2023-05-27T06:48:33;21.73;;;4.25;;
47335;SDS011;33068;51.990;5.926;2023-05-27T06:51:01;18.17;;;4.68;;
47335;SDS011;33068;51.990;5.926;2023-05-27T06:53:30;18.13;;;4.13;;
47335;SDS011;33068;51.990;5.926;2023-05-27T06:56:02;28.92;;;5.82;;
47335;SDS011;33068;51.990;5.926;2023-05-27T06:58:50;22.10;;;4.47;;
47335;SDS011;33068;51.990;5.926;2023-05-27T07:04:00;19.48;;;4.50;;
47335;SDS011;33068;51.990;5.926;2023-05-27T07:06:44;19.05;;;4.43;;
47335;SDS011;33068;51.990;5.926;2023-05-27T07:09:13;21.00;;;4.82;;
47335;SDS011;33068;51.990;5.926;2023-05-27T07:11:40;14.82;;;4.50;;
47335;SDS011;33068;51.990;5.926;2023-05-27T07:14:12;17.77;;;4.13;;
47335;SDS011;33068;51.990;5.926;2023-05-27T07:16:41;20.17;;;4.50;;
47335;SDS011;33068;51.990;5.926;2023-05-27T07:19:09;23.90;;;5.43;;
47335;SDS011;33068;51.990;5.926;2023-05-27T07:21:52;23.15;;;4.78;;
47335;SDS011;33068;51.990;5.926;2023-05-27T07:24:22;13.88;;;4.07;;
47335;SDS011;33068;51.990;5.926;2023-05-27T07:26:51;18.67;;;4.25;;
47335;SDS011;33068;51.990;5.926;2023-05-27T07:29:19;24.02;;;4.25;;
47335;SDS011;33068;51.990;5.926;2023-05-27T07:32:12;15.27;;;3.80;;
47335;SDS011;33068;51.990;5.926;2023-05-27T07:34:40;18.63;;;4.43;;
47335;SDS011;33068;51.990;5.926;2023-05-27T07:37:07;12.40;;;3.38;;
47335;SDS011;33068;51.990;5.926;2023-05-27T07:39:35;19.50;;;4.13;;
47335;SDS011;33068;51.990;5.926;2023-05-27T07:42:03;22.98;;;4.65;;
47335;SDS011;33068;51.990;5.926;2023-05-27T07:44:30;18.45;;;4.10;;
47335;SDS011;33068;51.990;5.926;2023-05-27T07:46:57;18.52;;;3.38;;
47335;SDS011;33068;51.990;5.926;2023-05-27T07:49:25;11.15;;;3.80;;
47335;SDS011;33068;51.990;5.926;2023-05-27T07:52:15;13.23;;;4.18;;
47335;SDS011;33068;51.990;5.926;2023-05-27T07:54:44;15.93;;;3.72;;
47335;SDS011;33068;51.990;5.926;2023-05-27T07:57:13;15.75;;;4.15;;
47335;SDS011;33068;51.990;5.926;2023-05-27T07:59:41;20.15;;;4.45;;
47335;SDS011;33068;51.990;5.926;2023-05-27T08:02:09;11.90;;;3.08;;
47335;SDS011;33068;51.990;5.926;2023-05-27T08:04:37;13.55;;;3.53;;
47335;SDS011;33068;51.990;5.926;2023-05-27T08:07:33;11.60;;;3.22;;
47335;SDS011;33068;51.990;5.926;2023-05-27T08:10:22;22.00;;;4.45;;
47335;SDS011;33068;51.990;5.926;2023-05-27T08:13:12;21.50;;;4.10;;
47335;SDS011;33068;51.990;5.926;2023-05-27T08:15:54;14.75;;;3.63;;
47335;SDS011;33068;51.990;5.926;2023-05-27T08:18:54;19.88;;;3.95;;
47335;SDS011;33068;51.990;5.926;2023-05-27T08:21:34;17.05;;;3.95;;
47335;SDS011;33068;51.990;5.926;2023-05-27T08:24:19;15.38;;;3.72;;
47335;SDS011;33068;51.990;5.926;2023-05-27T08:27:12;17.58;;;3.95;;
47335;SDS011;33068;51.990;5.926;2023-05-27T08:29:54;19.23;;;4.93;;
47335;SDS011;33068;51.990;5.926;2023-05-27T08:32:28;13.65;;;3.95;;
47335;SDS011;33068;51.990;5.926;2023-05-27T08:34:55;14.77;;;3.90;;
47335;SDS011;33068;51.990;5.926;2023-05-27T08:37:23;14.10;;;4.25;;
47335;SDS011;33068;51.990;5.926;2023-05-27T08:39:50;19.42;;;4.25;;
47335;SDS011;33068;51.990;5.926;2023-05-27T08:42:32;23.63;;;5.05;;
47335;SDS011;33068;51.990;5.926;2023-05-27T08:44:59;17.17;;;3.83;;
47335;SDS011;33068;51.990;5.926;2023-05-27T08:47:27;19.25;;;4.50;;
47335;SDS011;33068;51.990;5.926;2023-05-27T08:49:55;15.80;;;3.97;;
47335;SDS011;33068;51.990;5.926;2023-05-27T08:52:23;17.08;;;4.55;;
47335;SDS011;33068;51.990;5.926;2023-05-27T08:54:53;18.20;;;4.20;;
47335;SDS011;33068;51.990;5.926;2023-05-27T08:57:23;19.40;;;4.50;;
47335;SDS011;33068;51.990;5.926;2023-05-27T08:59:56;11.48;;;4.43;;
47335;SDS011;33068;51.990;5.926;2023-05-27T09:02:24;15.02;;;4.18;;
47335;SDS011;33068;51.990;5.926;2023-05-27T09:04:57;21.50;;;4.85;;
47335;SDS011;33068;51.990;5.926;2023-05-27T09:07:24;19.02;;;4.07;;
47335;SDS011;33068;51.990;5.926;2023-05-27T09:09:54;13.95;;;4.00;;
47335;SDS011;33068;51.990;5.926;2023-05-27T09:12:22;17.73;;;4.28;;
47335;SDS011;33068;51.990;5.926;2023-05-27T09:14:51;13.50;;;3.90;;
47335;SDS011;33068;51.990;5.926;2023-05-27T09:17:22;20.33;;;4.90;;
47335;SDS011;33068;51.990;5.926;2023-05-27T09:19:49;15.40;;;4.20;;
47335;SDS011;33068;51.990;5.926;2023-05-27T09:22:20;14.95;;;4.20;;
47335;SDS011;33068;51.990;5.926;2023-05-27T09:24:48;12.50;;;3.97;;
47335;SDS011;33068;51.990;5.926;2023-05-27T09:27:16;16.63;;;4.15;;
47335;SDS011;33068;51.990;5.926;2023-05-27T09:29:44;16.75;;;4.35;;
47335;SDS011;33068;51.990;5.926;2023-05-27T09:32:11;16.75;;;4.10;;
47335;SDS011;33068;51.990;5.926;2023-05-27T09:34:39;13.32;;;4.15;;
47335;SDS011;33068;51.990;5.926;2023-05-27T09:37:12;16.67;;;4.40;;
47335;SDS011;33068;51.990;5.926;2023-05-27T09:39:40;16.80;;;4.13;;
47335;SDS011;33068;51.990;5.926;2023-05-27T09:42:07;13.65;;;4.22;;
47335;SDS011;33068;51.990;5.926;2023-05-27T09:44:35;12.93;;;4.15;;
47335;SDS011;33068;51.990;5.926;2023-05-27T09:47:05;13.68;;;3.97;;
47335;SDS011;33068;51.990;5.926;2023-05-27T09:49:36;17.55;;;4.70;;
47335;SDS011;33068;51.990;5.926;2023-05-27T09:52:06;16.63;;;4.55;;
47335;SDS011;33068;51.990;5.926;2023-05-27T09:54:36;15.27;;;4.32;;
47335;SDS011;33068;51.990;5.926;2023-05-27T09:57:04;17.02;;;4.40;;
47335;SDS011;33068;51.990;5.926;2023-05-27T09:59:33;16.90;;;4.05;;
47335;SDS011;33068;51.990;5.926;2023-05-27T10:02:00;11.35;;;3.22;;
47335;SDS011;33068;51.990;5.926;2023-05-27T10:04:28;12.77;;;4.18;;
47335;SDS011;33068;51.990;5.926;2023-05-27T10:06:56;19.90;;;4.10;;
47335;SDS011;33068;51.990;5.926;2023-05-27T10:09:25;16.58;;;4.07;;
47335;SDS011;33068;51.990;5.926;2023-05-27T10:11:52;16.17;;;4.55;;
47335;SDS011;33068;51.990;5.926;2023-05-27T10:14:20;17.13;;;3.97;;
47335;SDS011;33068;51.990;5.926;2023-05-27T10:16:51;17.30;;;4.30;;
47335;SDS011;33068;51.990;5.926;2023-05-27T10:19:20;11.95;;;3.50;;
47335;SDS011;33068;51.990;5.926;2023-05-27T10:21:47;19.63;;;3.80;;
47335;SDS011;33068;51.990;5.926;2023-05-27T10:24:14;13.38;;;3.70;;
47335;SDS011;33068;51.990;5.926;2023-05-27T10:26:43;15.65;;;4.03;;
47335;SDS011;33068;51.990;5.926;2023-05-27T10:29:13;15.07;;;3.35;;
47335;SDS011;33068;51.990;5.926;2023-05-27T10:31:44;15.15;;;3.42;;
47335;SDS011;33068;51.990;5.926;2023-05-27T10:34:13;13.10;;;3.75;;
47335;SDS011;33068;51.990;5.926;2023-05-27T10:36:40;16.55;;;3.70;;
47335;SDS011;33068;51.990;5.926;2023-05-27T10:39:12;13.27;;;3.75;;
47335;SDS011;33068;51.990;5.926;2023-05-27T10:41:43;16.13;;;3.60;;
47335;SDS011;33068;51.990;5.926;2023-05-27T10:44:24;16.85;;;4.18;;
47335;SDS011;33068;51.990;5.926;2023-05-27T10:46:58;17.10;;;4.05;;
47335;SDS011;33068;51.990;5.926;2023-05-27T10:49:26;20.40;;;3.83;;
47335;SDS011;33068;51.990;5.926;2023-05-27T10:52:00;15.88;;;3.55;;
47335;SDS011;33068;51.990;5.926;2023-05-27T10:54:36;11.98;;;3.05;;
47335;SDS011;33068;51.990;5.926;2023-05-27T10:57:04;11.90;;;3.20;;
47335;SDS011;33068;51.990;5.926;2023-05-27T10:59:36;11.23;;;3.63;;
47335;SDS011;33068;51.990;5.926;2023-05-27T11:02:11;10.10;;;2.95;;
47335;SDS011;33068;51.990;5.926;2023-05-27T11:04:38;13.52;;;3.08;;
47335;SDS011;33068;51.990;5.926;2023-05-27T11:07:05;10.63;;;2.75;;
47335;SDS011;33068;51.990;5.926;2023-05-27T11:09:42;12.20;;;3.47;;
47335;SDS011;33068;51.990;5.926;2023-05-27T11:12:13;10.88;;;3.35;;
47335;SDS011;33068;51.990;5.926;2023-05-27T11:14:42;14.70;;;3.03;;
47335;SDS011;33068;51.990;5.926;2023-05-27T11:17:09;14.88;;;3.50;;
47335;SDS011;33068;51.990;5.926;2023-05-27T11:19:38;14.85;;;3.80;;
47335;SDS011;33068;51.990;5.926;2023-05-27T11:22:06;11.18;;;3.83;;
47335;SDS011;33068;51.990;5.926;2023-05-27T11:24:34;14.88;;;3.58;;
47335;SDS011;33068;51.990;5.926;2023-05-27T11:27:07;12.93;;;3.15;;
47335;SDS011;33068;51.990;5.926;2023-05-27T11:29:39;9.02;;;2.83;;
47335;SDS011;33068;51.990;5.926;2023-05-27T11:32:07;15.98;;;3.10;;
47335;SDS011;33068;51.990;5.926;2023-05-27T11:34:35;12.50;;;3.40;;
47335;SDS011;33068;51.990;5.926;2023-05-27T11:37:03;11.82;;;3.55;;
47335;SDS011;33068;51.990;5.926;2023-05-27T11:39:31;10.32;;;3.10;;
47335;SDS011;33068;51.990;5.926;2023-05-27T11:41:59;16.23;;;3.78;;
47335;SDS011;33068;51.990;5.926;2023-05-27T11:44:26;12.52;;;3.00;;
47335;SDS011;33068;51.990;5.926;2023-05-27T11:46:58;18.08;;;3.53;;
47335;SDS011;33068;51.990;5.926;2023-05-27T11:49:27;12.02;;;3.22;;
47335;SDS011;33068;51.990;5.926;2023-05-27T11:51:55;16.42;;;3.13;;
47335;SDS011;33068;51.990;5.926;2023-05-27T11:54:23;10.73;;;3.30;;
47335;SDS011;33068;51.990;5.926;2023-05-27T11:56:53;13.80;;;3.55;;
47335;SDS011;33068;51.990;5.926;2023-05-27T11:59:21;12.55;;;3.17;;
47335;SDS011;33068;51.990;5.926;2023-05-27T12:01:49;10.40;;;3.08;;
47335;SDS011;33068;51.990;5.926;2023-05-27T12:04:18;13.40;;;3.22;;
47335;SDS011;33068;51.990;5.926;2023-05-27T12:06:45;11.52;;;2.95;;
47335;SDS011;33068;51.990;5.926;2023-05-27T12:09:13;18.48;;;3.65;;
47335;SDS011;33068;51.990;5.926;2023-05-27T12:11:40;9.60;;;2.83;;
47335;SDS011;33068;51.990;5.926;2023-05-27T12:14:07;12.38;;;3.20;;
47335;SDS011;33068;51.990;5.926;2023-05-27T12:16:35;12.80;;;3.42;;
47335;SDS011;33068;51.990;5.926;2023-05-27T12:19:02;9.57;;;3.20;;
47335;SDS011;33068;51.990;5.926;2023-05-27T12:21:30;13.63;;;2.65;;
47335;SDS011;33068;51.990;5.926;2023-05-27T12:23:57;12.40;;;3.20;;
47335;SDS011;33068;51.990;5.926;2023-05-27T12:26:24;11.43;;;3.38;;
47335;SDS011;33068;51.990;5.926;2023-05-27T12:28:52;12.30;;;3.45;;
47335;SDS011;33068;51.990;5.926;2023-05-27T12:31:19;14.32;;;3.03;;
47335;SDS011;33068;51.990;5.926;2023-05-27T12:33:46;9.98;;;3.20;;
47335;SDS011;33068;51.990;5.926;2023-05-27T12:36:13;13.32;;;3.40;;
47335;SDS011;33068;51.990;5.926;2023-05-27T12:38:41;10.13;;;2.88;;
47335;SDS011;33068;51.990;5.926;2023-05-27T12:41:08;15.23;;;3.95;;
47335;SDS011;33068;51.990;5.926;2023-05-27T12:43:35;11.15;;;3.83;;
47335;SDS011;33068;51.990;5.926;2023-05-27T12:46:02;68.10;;;10.13;;
47335;SDS011;33068;51.990;5.926;2023-05-27T12:48:29;9.48;;;2.95;;
47335;SDS011;33068;51.990;5.926;2023-05-27T12:50:56;15.07;;;3.45;;
47335;SDS011;33068;51.990;5.926;2023-05-27T12:53:23;10.75;;;2.60;;
47335;SDS011;33068;51.990;5.926;2023-05-27T12:55:52;13.68;;;2.70;;
47335;SDS011;33068;51.990;5.926;2023-05-27T12:58:19;13.73;;;3.00;;
47335;SDS011;33068;51.990;5.926;2023-05-27T13:00:46;13.27;;;3.55;;
47335;SDS011;33068;51.990;5.926;2023-05-27T13:03:13;7.50;;;2.50;;
47335;SDS011;33068;51.990;5.926;2023-05-27T13:05:41;8.93;;;2.95;;
47335;SDS011;33068;51.990;5.926;2023-05-27T13:08:08;11.32;;;3.42;;
47335;SDS011;33068;51.990;5.926;2023-05-27T13:10:36;12.88;;;3.13;;
47335;SDS011;33068;51.990;5.926;2023-05-27T13:13:04;9.55;;;2.92;;
47335;SDS011;33068;51.990;5.926;2023-05-27T13:15:31;9.30;;;2.95;;
47335;SDS011;33068;51.990;5.926;2023-05-27T13:17:58;9.10;;;2.72;;
47335;SDS011;33068;51.990;5.926;2023-05-27T13:20:27;13.82;;;3.05;;
47335;SDS011;33068;51.990;5.926;2023-05-27T13:22:55;12.07;;;2.95;;
47335;SDS011;33068;51.990;5.926;2023-05-27T13:25:25;13.43;;;2.80;;
47335;SDS011;33068;51.990;5.926;2023-05-27T13:27:53;12.32;;;2.72;;
47335;SDS011;33068;51.990;5.926;2023-05-27T13:30:22;12.05;;;3.20;;
47335;SDS011;33068;51.990;5.926;2023-05-27T13:32:50;14.48;;;3.72;;
47335;SDS011;33068;51.990;5.926;2023-05-27T13:35:18;11.32;;;2.83;;
47335;SDS011;33068;51.990;5.926;2023-05-27T13:37:46;11.82;;;2.80;;
47335;SDS011;33068;51.990;5.926;2023-05-27T13:40:13;17.73;;;3.80;;
47335;SDS011;33068;51.990;5.926;2023-05-27T13:42:40;10.38;;;3.00;;
47335;SDS011;33068;51.990;5.926;2023-05-27T13:45:07;10.70;;;2.95;;
47335;SDS011;33068;51.990;5.926;2023-05-27T13:47:36;7.78;;;2.13;;
47335;SDS011;33068;51.990;5.926;2023-05-27T13:50:06;8.38;;;2.55;;
47335;SDS011;33068;51.990;5.926;2023-05-27T13:52:33;11.63;;;2.63;;
47335;SDS011;33068;51.990;5.926;2023-05-27T13:55:01;8.93;;;3.05;;
47335;SDS011;33068;51.990;5.926;2023-05-27T13:57:28;11.63;;;2.83;;
47335;SDS011;33068;51.990;5.926;2023-05-27T13:59:56;11.98;;;3.25;;
47335;SDS011;33068;51.990;5.926;2023-05-27T14:02:23;9.25;;;3.40;;
47335;SDS011;33068;51.990;5.926;2023-05-27T14:04:51;17.83;;;3.97;;
47335;SDS011;33068;51.990;5.926;2023-05-27T14:07:18;9.02;;;3.20;;
47335;SDS011;33068;51.990;5.926;2023-05-27T14:09:45;10.30;;;2.85;;
47335;SDS011;33068;51.990;5.926;2023-05-27T14:12:13;11.88;;;2.72;;
47335;SDS011;33068;51.990;5.926;2023-05-27T14:14:40;11.10;;;3.15;;
47335;SDS011;33068;51.990;5.926;2023-05-27T14:17:07;9.25;;;2.95;;
47335;SDS011;33068;51.990;5.926;2023-05-27T14:19:34;9.15;;;2.83;;
47335;SDS011;33068;51.990;5.926;2023-05-27T14:22:02;8.63;;;2.92;;
47335;SDS011;33068;51.990;5.926;2023-05-27T14:24:30;11.50;;;3.22;;
47335;SDS011;33068;51.990;5.926;2023-05-27T14:26:58;8.10;;;2.53;;
47335;SDS011;33068;51.990;5.926;2023-05-27T14:29:26;13.52;;;3.72;;
47335;SDS011;33068;51.990;5.926;2023-05-27T14:31:53;9.55;;;2.65;;
47335;SDS011;33068;51.990;5.926;2023-05-27T14:34:20;7.70;;;3.13;;
47335;SDS011;33068;51.990;5.926;2023-05-27T14:36:47;10.68;;;3.05;;
47335;SDS011;33068;51.990;5.926;2023-05-27T14:39:16;11.07;;;2.90;;
47335;SDS011;33068;51.990;5.926;2023-05-27T14:41:43;16.85;;;3.50;;
47335;SDS011;33068;51.990;5.926;2023-05-27T14:44:10;12.23;;;3.25;;
47335;SDS011;33068;51.990;5.926;2023-05-27T14:46:37;11.23;;;2.95;;
47335;SDS011;33068;51.990;5.926;2023-05-27T14:49:04;11.18;;;3.10;;
47335;SDS011;33068;51.990;5.926;2023-05-27T14:51:31;13.48;;;2.53;;
47335;SDS011;33068;51.990;5.926;2023-05-27T14:53:59;11.00;;;2.80;;